sensor_id;sensor_type;location;lat;lon;timestamp;temperature;humidity
7044;DHT22;57890;52.36301240;9.76001620;2022-12-07T00:01:45;6.60;99.90
7044;DHT22;57890;52.36301240;9.76001620;2022-12-07T00:04:14;6.60;99.90
7044;DHT22;57890;52.36301240;9.76001620;2022-12-07T00:06:44;6.50;99.90
7044;DHT22;57890;52.36301240;9.76001620;2022-12-07T00:09:13;6.60;99.90
7044;DHT22;57890;52.36301240;9.76001620;2022-12-07T00:11:41;6.60;99.90
7044;DHT22;57890;52.36301240;9.76001620;2022-12-07T00:14:10;6.60;99.90
7044;DHT22;57890;52.36301240;9.76001620;2022-12-07T00:16:38;6.60;99.90
7044;DHT22;57890;52.36301240;9.76001620;2022-12-07T00:19:04;6.60;99.90
7044;DHT22;57890;52.36301240;9.76001620;2022-12-07T00:21:33;6.70;99.90
7044;DHT22;57890;52.36301240;9.76001620;2022-12-07T00:24:03;6.70;99.90
7044;DHT22;57890;52.36301240;9.76001620;2022-12-07T00:26:32;6.70;99.90
7044;DHT22;57890;52.36301240;9.76001620;2022-12-07T00:29:03;6.70;99.90
7044;DHT22;57890;52.36301240;9.76001620;2022-12-07T00:31:32;6.70;99.90
7044;DHT22;57890;52.36301240;9.76001620;2022-12-07T00:34:01;6.80;99.90
7044;DHT22;57890;52.36301240;9.76001620;2022-12-07T00:36:28;6.80;99.90
7044;DHT22;57890;52.36301240;9.76001620;2022-12-07T00:38:56;6.80;99.90
7044;DHT22;57890;52.36301240;9.76001620;2022-12-07T00:41:26;6.80;99.90
7044;DHT22;57890;52.36301240;9.76001620;2022-12-07T00:43:54;6.80;99.90
7044;DHT22;57890;52.36301240;9.76001620;2022-12-07T00:46:22;6.80;99.90
7044;DHT22;57890;52.36301240;9.76001620;2022-12-07T00:48:51;6.80;99.90
7044;DHT22;57890;52.36301240;9.76001620;2022-12-07T00:51:20;6.90;99.90
7044;DHT22;57890;52.36301240;9.76001620;2022-12-07T00:53:48;6.90;99.90
7044;DHT22;57890;52.36301240;9.76001620;2022-12-07T00:56:16;6.90;99.90
7044;DHT22;57890;52.36301240;9.76001620;2022-12-07T00:58:49;6.90;99.90
7044;DHT22;57890;52.36301240;9.76001620;2022-12-07T01:01:16;6.90;99.90
7044;DHT22;57890;52.36301240;9.76001620;2022-12-07T01:03:43;6.90;99.90
7044;DHT22;57890;52.36301240;9.76001620;2022-12-07T01:06:14;6.90;99.90
7044;DHT22;57890;52.36301240;9.76001620;2022-12-07T01:08:41;6.90;99.90
7044;DHT22;57890;52.36301240;9.76001620;2022-12-07T01:11:11;6.90;99.90
7044;DHT22;57890;52.36301240;9.76001620;2022-12-07T01:13:38;6.90;99.90
7044;DHT22;57890;52.36301240;9.76001620;2022-12-07T01:16:09;7.00;99.90
7044;DHT22;57890;52.36301240;9.76001620;2022-12-07T01:18:36;6.90;99.90
7044;DHT22;57890;52.36301240;9.76001620;2022-12-07T01:21:05;7.00;99.90
7044;DHT22;57890;52.36301240;9.76001620;2022-12-07T01:23:33;7.00;99.90
7044;DHT22;57890;52.36301240;9.76001620;2022-12-07T01:26:02;7.00;99.90
7044;DHT22;57890;52.36301240;9.76001620;2022-12-07T01:28:29;7.00;99.90
7044;DHT22;57890;52.36301240;9.76001620;2022-12-07T01:30:57;7.00;99.90
7044;DHT22;57890;52.36301240;9.76001620;2022-12-07T01:33:28;7.00;99.90
7044;DHT22;57890;52.36301240;9.76001620;2022-12-07T01:36:00;7.00;99.90
7044;DHT22;57890;52.36301240;9.76001620;2022-12-07T01:38:27;7.00;99.90
7044;DHT22;57890;52.36301240;9.76001620;2022-12-07T01:40:55;7.00;99.90
7044;DHT22;57890;52.36301240;9.76001620;2022-12-07T01:43:24;6.90;99.90
7044;DHT22;57890;52.36301240;9.76001620;2022-12-07T01:45:52;6.90;99.90
7044;DHT22;57890;52.36301240;9.76001620;2022-12-07T01:48:23;6.90;99.90
7044;DHT22;57890;52.36301240;9.76001620;2022-12-07T01:50:54;6.90;99.90
7044;DHT22;57890;52.36301240;9.76001620;2022-12-07T01:53:25;6.90;99.90
7044;DHT22;57890;52.36301240;9.76001620;2022-12-07T01:55:53;7.00;99.90
7044;DHT22;57890;52.36301240;9.76001620;2022-12-07T01:58:21;7.00;99.90
7044;DHT22;57890;52.36301240;9.76001620;2022-12-07T02:00:49;7.00;99.90
7044;DHT22;57890;52.36301240;9.76001620;2022-12-07T02:03:19;7.00;99.90
7044;DHT22;57890;52.36301240;9.76001620;2022-12-07T02:05:48;7.00;99.90
7044;DHT22;57890;52.36301240;9.76001620;2022-12-07T02:08:17;7.00;99.90
7044;DHT22;57890;52.36301240;9.76001620;2022-12-07T02:10:44;7.00;99.90
7044;DHT22;57890;52.36301240;9.76001620;2022-12-07T02:13:13;6.90;99.90
7044;DHT22;57890;52.36301240;9.76001620;2022-12-07T02:15:53;6.90;99.90
7044;DHT22;57890;52.36301240;9.76001620;2022-12-07T02:18:28;6.90;99.90
7044;DHT22;57890;52.36301240;9.76001620;2022-12-07T02:21:03;6.90;99.90
7044;DHT22;57890;52.36301240;9.76001620;2022-12-07T02:23:41;6.90;99.90
7044;DHT22;57890;52.36301240;9.76001620;2022-12-07T02:29:23;6.90;99.90
7044;DHT22;57890;52.36301240;9.76001620;2022-12-07T02:31:55;6.90;99.90
7044;DHT22;57890;52.36301240;9.76001620;2022-12-07T02:34:33;6.90;99.90
7044;DHT22;57890;52.36301240;9.76001620;2022-12-07T02:37:05;6.90;99.90
7044;DHT22;57890;52.36301240;9.76001620;2022-12-07T02:39:40;6.90;99.90
7044;DHT22;57890;52.36301240;9.76001620;2022-12-07T02:42:13;6.90;99.90
7044;DHT22;57890;52.36301240;9.76001620;2022-12-07T02:44:44;6.90;99.90
7044;DHT22;57890;52.36301240;9.76001620;2022-12-07T02:47:14;6.90;99.90
7044;DHT22;57890;52.36301240;9.76001620;2022-12-07T02:49:42;6.90;99.90
7044;DHT22;57890;52.36301240;9.76001620;2022-12-07T02:52:09;6.90;99.90
7044;DHT22;57890;52.36301240;9.76001620;2022-12-07T02:54:36;6.80;99.90
7044;DHT22;57890;52.36301240;9.76001620;2022-12-07T02:57:17;6.80;99.90
7044;DHT22;57890;52.36301240;9.76001620;2022-12-07T02:59:57;6.80;99.90
7044;DHT22;57890;52.36301240;9.76001620;2022-12-07T03:02:31;6.80;99.90
7044;DHT22;57890;52.36301240;9.76001620;2022-12-07T03:09:00;6.80;99.90
7044;DHT22;57890;52.36301240;9.76001620;2022-12-07T03:11:35;6.80;99.90
7044;DHT22;57890;52.36301240;9.76001620;2022-12-07T03:14:11;6.80;99.90
7044;DHT22;57890;52.36301240;9.76001620;2022-12-07T03:16:45;6.80;99.90
7044;DHT22;57890;52.36301240;9.76001620;2022-12-07T03:19:18;6.80;99.90
7044;DHT22;57890;52.36301240;9.76001620;2022-12-07T03:21:49;6.80;99.90
7044;DHT22;57890;52.36301240;9.76001620;2022-12-07T03:24:21;6.80;99.90
7044;DHT22;57890;52.36301240;9.76001620;2022-12-07T03:26:52;6.80;99.90
7044;DHT22;57890;52.36301240;9.76001620;2022-12-07T03:29:23;6.80;99.90
7044;DHT22;57890;52.36301240;9.76001620;2022-12-07T03:31:58;6.80;99.90
7044;DHT22;57890;52.36301240;9.76001620;2022-12-07T03:34:30;6.80;99.90
7044;DHT22;57890;52.36301240;9.76001620;2022-12-07T03:37:02;6.80;99.90
7044;DHT22;57890;52.36301240;9.76001620;2022-12-07T03:39:34;6.80;99.90
7044;DHT22;57890;52.36301240;9.76001620;2022-12-07T03:42:05;6.80;99.90
7044;DHT22;57890;52.36301240;9.76001620;2022-12-07T03:44:34;6.80;99.90
7044;DHT22;57890;52.36301240;9.76001620;2022-12-07T03:47:05;6.80;99.90
7044;DHT22;57890;52.36301240;9.76001620;2022-12-07T03:49:39;6.70;99.90
7044;DHT22;57890;52.36301240;9.76001620;2022-12-07T03:52:12;6.80;99.90
7044;DHT22;57890;52.36301240;9.76001620;2022-12-07T03:54:47;6.80;99.90
7044;DHT22;57890;52.36301240;9.76001620;2022-12-07T03:57:15;6.70;99.90
7044;DHT22;57890;52.36301240;9.76001620;2022-12-07T03:59:44;6.70;99.90
7044;DHT22;57890;52.36301240;9.76001620;2022-12-07T04:02:13;6.70;99.90
7044;DHT22;57890;52.36301240;9.76001620;2022-12-07T04:04:42;6.70;99.90
7044;DHT22;57890;52.36301240;9.76001620;2022-12-07T04:07:09;6.70;99.90
7044;DHT22;57890;52.36301240;9.76001620;2022-12-07T04:09:38;6.70;99.90
7044;DHT22;57890;52.36301240;9.76001620;2022-12-07T04:12:05;6.80;99.90
7044;DHT22;57890;52.36301240;9.76001620;2022-12-07T04:14:32;6.80;99.90
7044;DHT22;57890;52.36301240;9.76001620;2022-12-07T04:17:00;6.80;99.90
7044;DHT22;57890;52.36301240;9.76001620;2022-12-07T04:19:30;6.80;99.90
7044;DHT22;57890;52.36301240;9.76001620;2022-12-07T04:21:58;6.80;99.90
7044;DHT22;57890;52.36301240;9.76001620;2022-12-07T04:24:26;6.80;99.90
7044;DHT22;57890;52.36301240;9.76001620;2022-12-07T04:26:53;6.70;99.90
7044;DHT22;57890;52.36301240;9.76001620;2022-12-07T04:29:21;6.70;99.90
7044;DHT22;57890;52.36301240;9.76001620;2022-12-07T04:31:48;6.70;99.90
7044;DHT22;57890;52.36301240;9.76001620;2022-12-07T04:34:16;6.80;99.90
7044;DHT22;57890;52.36301240;9.76001620;2022-12-07T04:36:46;6.80;99.90
7044;DHT22;57890;52.36301240;9.76001620;2022-12-07T04:39:24;6.80;99.90
7044;DHT22;57890;52.36301240;9.76001620;2022-12-07T04:41:52;6.80;99.90
7044;DHT22;57890;52.36301240;9.76001620;2022-12-07T04:44:20;6.80;99.90
7044;DHT22;57890;52.36301240;9.76001620;2022-12-07T04:46:47;6.80;99.90
7044;DHT22;57890;52.36301240;9.76001620;2022-12-07T04:49:15;6.70;99.90
7044;DHT22;57890;52.36301240;9.76001620;2022-12-07T04:51:43;6.70;99.90
7044;DHT22;57890;52.36301240;9.76001620;2022-12-07T04:54:12;6.80;99.90
7044;DHT22;57890;52.36301240;9.76001620;2022-12-07T04:56:39;6.70;99.90
7044;DHT22;57890;52.36301240;9.76001620;2022-12-07T04:59:06;6.70;99.90
7044;DHT22;57890;52.36301240;9.76001620;2022-12-07T05:01:34;6.70;99.90
7044;DHT22;57890;52.36301240;9.76001620;2022-12-07T05:04:01;6.70;99.90
7044;DHT22;57890;52.36301240;9.76001620;2022-12-07T05:06:28;6.70;99.90
7044;DHT22;57890;52.36301240;9.76001620;2022-12-07T05:08:55;6.70;99.90
7044;DHT22;57890;52.36301240;9.76001620;2022-12-07T05:11:23;6.70;99.90
7044;DHT22;57890;52.36301240;9.76001620;2022-12-07T05:14:11;6.70;99.90
7044;DHT22;57890;52.36301240;9.76001620;2022-12-07T05:16:39;6.70;99.90
7044;DHT22;57890;52.36301240;9.76001620;2022-12-07T05:19:07;6.70;99.90
7044;DHT22;57890;52.36301240;9.76001620;2022-12-07T05:21:34;6.70;99.90
7044;DHT22;57890;52.36301240;9.76001620;2022-12-07T05:24:02;6.70;99.90
7044;DHT22;57890;52.36301240;9.76001620;2022-12-07T05:26:31;6.70;99.90
7044;DHT22;57890;52.36301240;9.76001620;2022-12-07T05:28:58;6.70;99.90
7044;DHT22;57890;52.36301240;9.76001620;2022-12-07T05:31:25;7.10;99.90
7044;DHT22;57890;52.36301240;9.76001620;2022-12-07T05:33:52;7.30;99.90
7044;DHT22;57890;52.36301240;9.76001620;2022-12-07T05:36:20;7.50;99.90
7044;DHT22;57890;52.36301240;9.76001620;2022-12-07T05:38:47;7.50;99.90
7044;DHT22;57890;52.36301240;9.76001620;2022-12-07T05:41:16;7.50;99.90
7044;DHT22;57890;52.36301240;9.76001620;2022-12-07T05:44:02;7.40;99.90
7044;DHT22;57890;52.36301240;9.76001620;2022-12-07T05:46:29;7.40;99.90
7044;DHT22;57890;52.36301240;9.76001620;2022-12-07T05:48:56;7.30;99.90
7044;DHT22;57890;52.36301240;9.76001620;2022-12-07T05:51:23;7.20;99.90
7044;DHT22;57890;52.36301240;9.76001620;2022-12-07T05:53:50;7.20;99.90
7044;DHT22;57890;52.36301240;9.76001620;2022-12-07T05:56:17;7.20;99.90
7044;DHT22;57890;52.36301240;9.76001620;2022-12-07T05:58:44;7.10;99.90
7044;DHT22;57890;52.36301240;9.76001620;2022-12-07T06:01:30;7.00;99.90
7044;DHT22;57890;52.36301240;9.76001620;2022-12-07T06:03:57;7.00;99.90
7044;DHT22;57890;52.36301240;9.76001620;2022-12-07T06:06:24;6.90;99.90
7044;DHT22;57890;52.36301240;9.76001620;2022-12-07T06:08:51;6.90;99.90
7044;DHT22;57890;52.36301240;9.76001620;2022-12-07T06:11:18;6.90;99.90
7044;DHT22;57890;52.36301240;9.76001620;2022-12-07T06:14:03;6.90;99.90
7044;DHT22;57890;52.36301240;9.76001620;2022-12-07T06:16:31;6.80;99.90
7044;DHT22;57890;52.36301240;9.76001620;2022-12-07T06:18:58;6.70;99.90
7044;DHT22;57890;52.36301240;9.76001620;2022-12-07T06:21:25;6.80;99.90
7044;DHT22;57890;52.36301240;9.76001620;2022-12-07T06:23:52;6.70;99.90
7044;DHT22;57890;52.36301240;9.76001620;2022-12-07T06:26:20;6.70;99.90
7044;DHT22;57890;52.36301240;9.76001620;2022-12-07T06:28:47;6.70;99.90
7044;DHT22;57890;52.36301240;9.76001620;2022-12-07T06:31:14;6.70;99.90
7044;DHT22;57890;52.36301240;9.76001620;2022-12-07T06:33:42;6.70;99.90
7044;DHT22;57890;52.36301240;9.76001620;2022-12-07T06:36:09;6.70;99.90
7044;DHT22;57890;52.36301240;9.76001620;2022-12-07T06:38:37;6.70;99.90
7044;DHT22;57890;52.36301240;9.76001620;2022-12-07T06:41:04;6.70;99.90
7044;DHT22;57890;52.36301240;9.76001620;2022-12-07T06:43:32;6.70;99.90
7044;DHT22;57890;52.36301240;9.76001620;2022-12-07T06:45:59;6.70;99.90
7044;DHT22;57890;52.36301240;9.76001620;2022-12-07T06:48:27;6.60;99.90
7044;DHT22;57890;52.36301240;9.76001620;2022-12-07T06:50:55;6.70;99.90
7044;DHT22;57890;52.36301240;9.76001620;2022-12-07T06:53:22;6.60;99.90
7044;DHT22;57890;52.36301240;9.76001620;2022-12-07T06:55:49;6.60;99.90
7044;DHT22;57890;52.36301240;9.76001620;2022-12-07T06:58:17;6.60;99.90
7044;DHT22;57890;52.36301240;9.76001620;2022-12-07T07:00:45;6.60;99.90
7044;DHT22;57890;52.36301240;9.76001620;2022-12-07T07:03:12;6.60;99.90
7044;DHT22;57890;52.36301240;9.76001620;2022-12-07T07:05:39;6.60;99.90
7044;DHT22;57890;52.36301240;9.76001620;2022-12-07T07:08:07;6.60;99.90
7044;DHT22;57890;52.36301240;9.76001620;2022-12-07T07:10:34;6.60;99.90
7044;DHT22;57890;52.36301240;9.76001620;2022-12-07T07:13:02;6.60;99.90
7044;DHT22;57890;52.36301240;9.76001620;2022-12-07T07:15:29;6.60;99.90
7044;DHT22;57890;52.36301240;9.76001620;2022-12-07T07:17:56;6.60;99.90
7044;DHT22;57890;52.36301240;9.76001620;2022-12-07T07:20:23;6.60;99.90
7044;DHT22;57890;52.36301240;9.76001620;2022-12-07T07:22:51;6.60;99.90
7044;DHT22;57890;52.36301240;9.76001620;2022-12-07T07:25:22;6.60;99.90
7044;DHT22;57890;52.36301240;9.76001620;2022-12-07T07:27:48;6.60;99.90
7044;DHT22;57890;52.36301240;9.76001620;2022-12-07T07:30:19;6.60;99.90
7044;DHT22;57890;52.36301240;9.76001620;2022-12-07T07:32:46;6.60;99.90
7044;DHT22;57890;52.36301240;9.76001620;2022-12-07T07:35:13;6.60;99.90
7044;DHT22;57890;52.36301240;9.76001620;2022-12-07T07:37:40;6.50;99.90
7044;DHT22;57890;52.36301240;9.76001620;2022-12-07T07:40:07;6.50;99.90
7044;DHT22;57890;52.36301240;9.76001620;2022-12-07T07:42:36;6.50;99.90
7044;DHT22;57890;52.36301240;9.76001620;2022-12-07T07:45:03;6.60;99.90
7044;DHT22;57890;52.36301240;9.76001620;2022-12-07T07:47:31;6.50;99.90
7044;DHT22;57890;52.36301240;9.76001620;2022-12-07T07:49:58;6.50;99.90
7044;DHT22;57890;52.36301240;9.76001620;2022-12-07T07:52:25;6.50;99.90
7044;DHT22;57890;52.36301240;9.76001620;2022-12-07T07:54:52;6.50;99.90
7044;DHT22;57890;52.36301240;9.76001620;2022-12-07T07:57:19;6.50;99.90
7044;DHT22;57890;52.36301240;9.76001620;2022-12-07T07:59:47;6.50;99.90
7044;DHT22;57890;52.36301240;9.76001620;2022-12-07T08:02:16;6.50;99.90
7044;DHT22;57890;52.36301240;9.76001620;2022-12-07T08:04:43;6.50;99.90
7044;DHT22;57890;52.36301240;9.76001620;2022-12-07T08:07:11;6.50;99.90
7044;DHT22;57890;52.36301240;9.76001620;2022-12-07T08:09:38;6.50;99.90
7044;DHT22;57890;52.36301240;9.76001620;2022-12-07T08:12:05;6.50;99.90
7044;DHT22;57890;52.36301240;9.76001620;2022-12-07T08:14:33;6.50;99.90
7044;DHT22;57890;52.36301240;9.76001620;2022-12-07T08:17:02;6.50;99.90
7044;DHT22;57890;52.36301240;9.76001620;2022-12-07T08:19:29;6.50;99.90
7044;DHT22;57890;52.36301240;9.76001620;2022-12-07T08:21:56;6.50;99.90
7044;DHT22;57890;52.36301240;9.76001620;2022-12-07T08:24:23;6.60;99.90
7044;DHT22;57890;52.36301240;9.76001620;2022-12-07T08:26:51;6.60;99.90
7044;DHT22;57890;52.36301240;9.76001620;2022-12-07T08:29:18;6.50;99.90
7044;DHT22;57890;52.36301240;9.76001620;2022-12-07T08:31:45;6.60;99.90
7044;DHT22;57890;52.36301240;9.76001620;2022-12-07T08:34:13;6.60;99.90
7044;DHT22;57890;52.36301240;9.76001620;2022-12-07T08:36:40;6.60;99.90
7044;DHT22;57890;52.36301240;9.76001620;2022-12-07T08:39:07;6.60;99.90
7044;DHT22;57890;52.36301240;9.76001620;2022-12-07T08:41:34;6.60;99.90
7044;DHT22;57890;52.36301240;9.76001620;2022-12-07T08:44:02;6.60;99.90
7044;DHT22;57890;52.36301240;9.76001620;2022-12-07T08:46:32;6.60;99.90
7044;DHT22;57890;52.36301240;9.76001620;2022-12-07T08:49:04;6.60;99.90
7044;DHT22;57890;52.36301240;9.76001620;2022-12-07T08:51:33;6.60;99.90
7044;DHT22;57890;52.36301240;9.76001620;2022-12-07T08:54:02;6.60;99.90
7044;DHT22;57890;52.36301240;9.76001620;2022-12-07T08:56:30;6.70;99.90
7044;DHT22;57890;52.36301240;9.76001620;2022-12-07T08:58:57;6.70;99.90
7044;DHT22;57890;52.36301240;9.76001620;2022-12-07T09:01:24;6.70;99.90
7044;DHT22;57890;52.36301240;9.76001620;2022-12-07T09:03:51;6.70;99.90
7044;DHT22;57890;52.36301240;9.76001620;2022-12-07T09:06:18;6.70;99.90
7044;DHT22;57890;52.36301240;9.76001620;2022-12-07T09:08:49;6.70;99.90
7044;DHT22;57890;52.36301240;9.76001620;2022-12-07T09:11:17;6.70;99.90
7044;DHT22;57890;52.36301240;9.76001620;2022-12-07T09:13:44;6.70;99.90
7044;DHT22;57890;52.36301240;9.76001620;2022-12-07T09:16:11;6.70;99.90
7044;DHT22;57890;52.36301240;9.76001620;2022-12-07T09:18:38;6.70;99.90
7044;DHT22;57890;52.36301240;9.76001620;2022-12-07T09:21:05;6.70;99.90
7044;DHT22;57890;52.36301240;9.76001620;2022-12-07T09:23:32;6.70;99.90
7044;DHT22;57890;52.36301240;9.76001620;2022-12-07T09:26:01;6.70;99.90
7044;DHT22;57890;52.36301240;9.76001620;2022-12-07T09:28:28;6.70;99.90
7044;DHT22;57890;52.36301240;9.76001620;2022-12-07T09:30:55;6.70;99.90
7044;DHT22;57890;52.36301240;9.76001620;2022-12-07T09:33:22;6.80;99.90
7044;DHT22;57890;52.36301240;9.76001620;2022-12-07T09:35:50;6.80;99.90
7044;DHT22;57890;52.36301240;9.76001620;2022-12-07T09:38:18;6.80;99.90
7044;DHT22;57890;52.36301240;9.76001620;2022-12-07T09:40:46;6.80;99.90
7044;DHT22;57890;52.36301240;9.76001620;2022-12-07T09:43:17;6.80;99.90
7044;DHT22;57890;52.36301240;9.76001620;2022-12-07T09:45:47;6.80;99.90
7044;DHT22;57890;52.36301240;9.76001620;2022-12-07T09:48:17;6.80;99.90
7044;DHT22;57890;52.36301240;9.76001620;2022-12-07T09:50:46;6.90;99.90
7044;DHT22;57890;52.36301240;9.76001620;2022-12-07T09:53:16;6.90;99.90
7044;DHT22;57890;52.36301240;9.76001620;2022-12-07T09:55:47;6.90;99.90
7044;DHT22;57890;52.36301240;9.76001620;2022-12-07T09:58:20;6.90;99.90
7044;DHT22;57890;52.36301240;9.76001620;2022-12-07T10:00:48;7.00;99.90
7044;DHT22;57890;52.36301240;9.76001620;2022-12-07T10:03:15;7.00;99.90
7044;DHT22;57890;52.36301240;9.76001620;2022-12-07T10:05:45;7.00;99.90
7044;DHT22;57890;52.36301240;9.76001620;2022-12-07T10:08:13;7.00;99.90
7044;DHT22;57890;52.36301240;9.76001620;2022-12-07T10:10:41;7.00;99.90
7044;DHT22;57890;52.36301240;9.76001620;2022-12-07T10:13:10;7.00;99.90
7044;DHT22;57890;52.36301240;9.76001620;2022-12-07T10:15:44;7.00;99.90
7044;DHT22;57890;52.36301240;9.76001620;2022-12-07T10:18:26;7.10;99.90
7044;DHT22;57890;52.36301240;9.76001620;2022-12-07T10:21:05;7.10;99.90
7044;DHT22;57890;52.36301240;9.76001620;2022-12-07T10:23:35;7.20;99.90
7044;DHT22;57890;52.36301240;9.76001620;2022-12-07T10:26:20;7.20;99.90
7044;DHT22;57890;52.36301240;9.76001620;2022-12-07T10:28:48;7.20;99.90
7044;DHT22;57890;52.36301240;9.76001620;2022-12-07T10:31:19;7.20;99.90
7044;DHT22;57890;52.36301240;9.76001620;2022-12-07T10:33:51;7.20;99.90
7044;DHT22;57890;52.36301240;9.76001620;2022-12-07T10:36:22;7.20;99.90
7044;DHT22;57890;52.36301240;9.76001620;2022-12-07T10:38:52;7.10;99.90
7044;DHT22;57890;52.36301240;9.76001620;2022-12-07T10:41:19;7.20;99.90
7044;DHT22;57890;52.36301240;9.76001620;2022-12-07T10:43:48;7.10;99.90
7044;DHT22;57890;52.36301240;9.76001620;2022-12-07T10:46:43;7.10;99.90
7044;DHT22;57890;52.36301240;9.76001620;2022-12-07T10:52:20;7.10;99.90
7044;DHT22;57890;52.36301240;9.76001620;2022-12-07T10:54:58;7.20;99.90
7044;DHT22;57890;52.36301240;9.76001620;2022-12-07T10:57:37;7.10;99.90
7044;DHT22;57890;52.36301240;9.76001620;2022-12-07T11:00:15;7.10;99.90
7044;DHT22;57890;52.36301240;9.76001620;2022-12-07T11:05:47;7.00;99.90
7044;DHT22;57890;52.36301240;9.76001620;2022-12-07T11:08:23;7.00;99.90
7044;DHT22;57890;52.36301240;9.76001620;2022-12-07T11:10:55;7.00;99.90
7044;DHT22;57890;52.36301240;9.76001620;2022-12-07T11:13:29;7.00;99.90
7044;DHT22;57890;52.36301240;9.76001620;2022-12-07T11:16:23;6.90;99.90
7044;DHT22;57890;52.36301240;9.76001620;2022-12-07T11:19:12;6.90;99.90
7044;DHT22;57890;52.36301240;9.76001620;2022-12-07T11:21:48;6.90;99.90
7044;DHT22;57890;52.36301240;9.76001620;2022-12-07T11:24:19;6.80;99.90
7044;DHT22;57890;52.36301240;9.76001620;2022-12-07T11:27:03;6.80;99.90
7044;DHT22;57890;52.36301240;9.76001620;2022-12-07T11:29:47;6.80;99.90
7044;DHT22;57890;52.36301240;9.76001620;2022-12-07T11:32:22;6.90;99.90
7044;DHT22;57890;52.36301240;9.76001620;2022-12-07T11:35:00;6.90;99.90
7044;DHT22;57890;52.36301240;9.76001620;2022-12-07T11:37:33;6.90;99.90
7044;DHT22;57890;52.36301240;9.76001620;2022-12-07T11:40:03;6.90;99.90
7044;DHT22;57890;52.36301240;9.76001620;2022-12-07T11:42:33;6.80;99.90
7044;DHT22;57890;52.36301240;9.76001620;2022-12-07T11:45:14;6.80;99.90
7044;DHT22;57890;52.36301240;9.76001620;2022-12-07T11:47:45;6.70;99.90
7044;DHT22;57890;52.36301240;9.76001620;2022-12-07T11:50:33;6.70;99.90
7044;DHT22;57890;52.36301240;9.76001620;2022-12-07T11:53:03;6.70;99.90
7044;DHT22;57890;52.36301240;9.76001620;2022-12-07T11:55:42;6.70;99.90
7044;DHT22;57890;52.36301240;9.76001620;2022-12-07T11:58:20;6.70;99.90
7044;DHT22;57890;52.36301240;9.76001620;2022-12-07T12:00:50;6.70;99.90
7044;DHT22;57890;52.36301240;9.76001620;2022-12-07T12:03:25;6.70;99.90
7044;DHT22;57890;52.36301240;9.76001620;2022-12-07T12:05:58;6.80;99.90
7044;DHT22;57890;52.36301240;9.76001620;2022-12-07T12:08:29;6.80;99.90
7044;DHT22;57890;52.36301240;9.76001620;2022-12-07T12:11:00;6.90;99.90
7044;DHT22;57890;52.36301240;9.76001620;2022-12-07T12:13:51;6.90;99.90
7044;DHT22;57890;52.36301240;9.76001620;2022-12-07T12:16:35;7.10;99.90
7044;DHT22;57890;52.36301240;9.76001620;2022-12-07T12:19:16;7.10;99.90
7044;DHT22;57890;52.36301240;9.76001620;2022-12-07T12:21:47;7.20;99.90
7044;DHT22;57890;52.36301240;9.76001620;2022-12-07T12:24:18;7.20;99.90
7044;DHT22;57890;52.36301240;9.76001620;2022-12-07T12:26:52;7.20;99.90
7044;DHT22;57890;52.36301240;9.76001620;2022-12-07T12:29:23;7.20;99.90
7044;DHT22;57890;52.36301240;9.76001620;2022-12-07T12:32:06;7.20;99.90
7044;DHT22;57890;52.36301240;9.76001620;2022-12-07T12:34:39;7.30;99.90
7044;DHT22;57890;52.36301240;9.76001620;2022-12-07T12:37:43;7.30;99.90
7044;DHT22;57890;52.36301240;9.76001620;2022-12-07T12:40:39;7.30;99.90
7044;DHT22;57890;52.36301240;9.76001620;2022-12-07T12:43:43;7.30;99.90
7044;DHT22;57890;52.36301240;9.76001620;2022-12-07T12:46:37;7.30;99.90
7044;DHT22;57890;52.36301240;9.76001620;2022-12-07T12:49:31;7.30;99.90
7044;DHT22;57890;52.36301240;9.76001620;2022-12-07T12:52:00;7.30;99.90
7044;DHT22;57890;52.36301240;9.76001620;2022-12-07T12:55:00;7.30;99.90
7044;DHT22;57890;52.36301240;9.76001620;2022-12-07T12:57:31;7.30;99.90
7044;DHT22;57890;52.36301240;9.76001620;2022-12-07T12:59:58;7.30;99.90
7044;DHT22;57890;52.36301240;9.76001620;2022-12-07T13:02:27;7.30;99.90
7044;DHT22;57890;52.36301240;9.76001620;2022-12-07T13:04:56;7.30;99.90
7044;DHT22;57890;52.36301240;9.76001620;2022-12-07T13:10:43;7.40;99.90
7044;DHT22;57890;52.36301240;9.76001620;2022-12-07T13:13:32;7.40;99.90
7044;DHT22;57890;52.36301240;9.76001620;2022-12-07T13:16:37;7.40;99.90
7044;DHT22;57890;52.36301240;9.76001620;2022-12-07T13:22:51;7.40;99.90
7044;DHT22;57890;52.36301240;9.76001620;2022-12-07T13:25:33;7.50;99.90
7044;DHT22;57890;52.36301240;9.76001620;2022-12-07T13:28:10;7.50;99.90
7044;DHT22;57890;52.36301240;9.76001620;2022-12-07T13:30:47;7.50;99.90
7044;DHT22;57890;52.36301240;9.76001620;2022-12-07T13:33:16;7.50;99.90
7044;DHT22;57890;52.36301240;9.76001620;2022-12-07T13:35:44;7.50;99.90
7044;DHT22;57890;52.36301240;9.76001620;2022-12-07T13:38:25;7.40;99.90
7044;DHT22;57890;52.36301240;9.76001620;2022-12-07T13:41:13;7.40;99.90
7044;DHT22;57890;52.36301240;9.76001620;2022-12-07T13:43:49;7.50;99.90
7044;DHT22;57890;52.36301240;9.76001620;2022-12-07T13:46:19;7.50;99.90
7044;DHT22;57890;52.36301240;9.76001620;2022-12-07T13:48:50;7.50;99.90
7044;DHT22;57890;52.36301240;9.76001620;2022-12-07T13:51:20;7.40;99.90
7044;DHT22;57890;52.36301240;9.76001620;2022-12-07T13:53:48;7.40;99.90
7044;DHT22;57890;52.36301240;9.76001620;2022-12-07T13:56:15;7.40;99.90
7044;DHT22;57890;52.36301240;9.76001620;2022-12-07T13:58:42;7.40;99.90
7044;DHT22;57890;52.36301240;9.76001620;2022-12-07T14:01:12;7.40;99.90
7044;DHT22;57890;52.36301240;9.76001620;2022-12-07T14:03:40;7.40;99.90
7044;DHT22;57890;52.36301240;9.76001620;2022-12-07T14:06:23;7.40;99.90
7044;DHT22;57890;52.36301240;9.76001620;2022-12-07T14:09:14;7.40;99.90
7044;DHT22;57890;52.36301240;9.76001620;2022-12-07T14:11:44;7.40;99.90
7044;DHT22;57890;52.36301240;9.76001620;2022-12-07T14:14:14;7.30;99.90
7044;DHT22;57890;52.36301240;9.76001620;2022-12-07T14:16:56;7.30;99.90
7044;DHT22;57890;52.36301240;9.76001620;2022-12-07T14:19:42;7.30;99.90
7044;DHT22;57890;52.36301240;9.76001620;2022-12-07T14:22:20;7.30;99.90
7044;DHT22;57890;52.36301240;9.76001620;2022-12-07T14:24:48;7.30;99.90
7044;DHT22;57890;52.36301240;9.76001620;2022-12-07T14:27:20;7.30;99.90
7044;DHT22;57890;52.36301240;9.76001620;2022-12-07T14:29:47;7.30;99.90